Time;durP1;ratioP1;P1;durP2;ratioP2;P2;SDS_P1;SDS_P2;PMS_P1;PMS_P2;Temp;Humidity;BMP_temperature;BMP_pressure;BME280_temperature;BME280_humidity;BME280_pressure;Samples;Min_cycle;Max_cycle;Signal;HPM_P1;HPM_P2
2022/05/19 00:00:23;;;;;;;12.05;8.82;;;21.10;69.70;;;;;;5018274;28;20076;-86
2022/05/19 00:02:49;;;;;;;14.77;9.18;;;21.10;70.80;;;;;;5021262;28;20034;-86
2022/05/19 00:05:15;;;;;;;11.27;8.95;;;21.20;71.60;;;;;;5021063;28;20381;-87
2022/05/19 00:07:41;;;;;;;16.75;10.00;;;21.20;72.60;;;;;;5014165;28;20038;-87
2022/05/19 00:10:08;;;;;;;13.27;10.00;;;21.00;74.80;;;;;;5019144;28;20050;-89
2022/05/19 00:12:34;;;;;;;19.15;11.88;;;20.70;76.00;;;;;;5017911;28;20062;-85
2022/05/19 00:15:00;;;;;;;20.65;12.38;;;20.60;76.50;;;;;;5016616;28;20557;-80
2022/05/19 00:17:27;;;;;;;17.83;10.38;;;20.20;80.10;;;;;;5009934;28;21049;-83
2022/05/19 00:19:56;;;;;;;20.67;11.82;;;20.10;78.60;;;;;;5021684;28;20124;-84
2022/05/19 00:22:22;;;;;;;21.90;12.82;;;20.10;79.30;;;;;;5027809;28;20128;-85
2022/05/19 00:24:48;;;;;;;21.63;12.82;;;20.10;80.40;;;;;;5015469;28;20136;-85
2022/05/19 00:27:13;;;;;;;19.23;12.18;;;20.10;80.90;;;;;;5014822;28;20768;-85
2022/05/19 00:29:39;;;;;;;18.77;13.07;;;19.80;82.50;;;;;;5011686;28;20037;-85
2022/05/19 00:32:05;;;;;;;23.30;13.70;;;19.60;82.90;;;;;;5013231;28;20451;-86
2022/05/19 00:34:31;;;;;;;17.20;12.23;;;19.60;83.50;;;;;;5038019;28;20026;-87
2022/05/19 00:36:58;;;;;;;15.25;11.80;;;19.70;83.40;;;;;;5043402;28;20048;-87
2022/05/19 00:39:23;;;;;;;17.45;12.90;;;19.80;83.40;;;;;;5025293;28;20071;-86
2022/05/19 00:42:43;;;;;;;17.85;13.13;;;19.80;83.80;;;;;;5042318;28;20022;-85
2022/05/19 00:44:35;;;;;;;18.67;13.23;;;19.80;84.60;;;;;;5035417;28;20045;-85
2022/05/19 00:47:01;;;;;;;18.33;13.48;;;19.90;85.20;;;;;;5046290;28;20033;-85
2022/05/19 00:49:40;;;;;;;20.60;13.40;;;20.00;85.10;;;;;;5030682;28;20041;-87
2022/05/19 00:52:10;;;;;;;19.60;13.50;;;19.90;84.80;;;;;;5016750;28;20039;-86
2022/05/19 00:54:50;;;;;;;18.70;12.85;;;19.90;85.00;;;;;;5019624;28;20052;-88
2022/05/19 00:57:22;;;;;;;22.73;13.07;;;19.80;84.70;;;;;;5024127;28;20077;-84
2022/05/19 01:00:03;;;;;;;22.10;13.75;;;19.80;85.20;;;;;;5029070;28;20053;-85
2022/05/19 01:02:37;;;;;;;19.33;11.02;;;19.70;85.40;;;;;;5026307;28;20109;-85
2022/05/19 01:05:11;;;;;;;15.27;8.45;;;19.60;85.40;;;;;;5023713;28;20038;-84
2022/05/19 01:07:39;;;;;;;14.45;7.80;;;19.50;85.40;;;;;;5024776;28;20045;-86
2022/05/19 01:10:06;;;;;;;16.48;7.78;;;19.50;85.70;;;;;;5012097;28;20087;-84
2022/05/19 01:12:34;;;;;;;12.95;6.88;;;19.50;84.60;;;;;;5019977;28;20457;-86
2022/05/19 01:15:01;;;;;;;13.45;6.40;;;19.30;84.80;;;;;;5027225;28;20121;-83
2022/05/19 01:17:28;;;;;;;12.68;6.60;;;19.20;84.80;;;;;;5025899;28;20050;-85
2022/05/19 01:20:02;;;;;;;11.75;7.15;;;19.20;85.50;;;;;;5023244;28;20049;-85
2022/05/19 01:22:56;;;;;;;11.93;7.00;;;19.20;85.30;;;;;;5021532;28;20030;-85
2022/05/19 01:25:40;;;;;;;15.65;8.32;;;19.10;85.00;;;;;;5007562;28;20287;-85
2022/05/19 01:28:06;;;;;;;13.93;7.90;;;19.30;85.70;;;;;;5016317;28;20038;-84
2022/05/19 01:30:32;;;;;;;14.30;7.85;;;19.30;85.70;;;;;;5014892;28;20123;-84
2022/05/19 01:32:58;;;;;;;14.40;7.63;;;19.30;85.60;;;;;;5017926;28;20038;-85
2022/05/19 01:35:24;;;;;;;12.82;7.80;;;19.30;85.50;;;;;;5022368;28;20038;-84
2022/05/19 01:37:50;;;;;;;11.15;7.20;;;19.30;85.40;;;;;;5018656;28;20041;-85
2022/05/19 01:40:18;;;;;;;14.07;8.10;;;19.40;85.40;;;;;;5017076;28;20537;-84
2022/05/19 01:42:59;;;;;;;14.25;8.18;;;19.40;85.20;;;;;;5014475;28;20145;-83
2022/05/19 01:46:00;;;;;;;12.65;8.27;;;19.40;85.20;;;;;;5015469;28;20733;-83
2022/05/19 01:48:28;;;;;;;11.07;7.90;;;19.50;85.10;;;;;;4990472;28;20113;-83
2022/05/19 01:51:00;;;;;;;12.27;8.20;;;19.50;84.20;;;;;;5018033;28;20045;-83
2022/05/19 01:53:40;;;;;;;14.23;7.80;;;19.60;84.00;;;;;;5015622;28;20740;-85
2022/05/19 01:56:20;;;;;;;11.80;7.43;;;19.60;83.60;;;;;;5025782;28;20087;-83
2022/05/19 01:59:02;;;;;;;10.68;7.00;;;19.60;83.00;;;;;;5026637;28;20279;-84
2022/05/19 02:01:28;;;;;;;9.93;6.95;;;19.60;82.90;;;;;;5012797;28;20421;-84
2022/05/19 02:04:09;;;;;;;9.93;5.93;;;19.70;82.80;;;;;;5020316;28;20094;-85
2022/05/19 02:06:49;;;;;;;8.32;6.10;;;19.70;83.10;;;;;;5019333;28;20049;-84
2022/05/19 02:09:20;;;;;;;7.97;6.03;;;19.70;82.80;;;;;;5018607;28;20441;-85
2022/05/19 02:11:57;;;;;;;8.35;5.32;;;19.60;82.80;;;;;;5023729;28;20572;-85
2022/05/19 02:14:47;;;;;;;9.15;5.97;;;19.60;82.60;;;;;;5026887;28;20038;-85
2022/05/19 02:17:17;;;;;;;9.73;5.68;;;19.60;82.70;;;;;;5016662;28;20021;-86
2022/05/19 02:19:47;;;;;;;11.65;6.05;;;19.60;82.90;;;;;;5013286;28;20087;-85
2022/05/19 02:22:16;;;;;;;9.43;5.47;;;19.60;83.10;;;;;;5034068;28;20373;-85
2022/05/19 02:24:50;;;;;;;9.18;5.47;;;19.60;83.00;;;;;;5033429;28;20487;-83
2022/05/19 02:27:54;;;;;;;10.23;5.10;;;19.50;82.90;;;;;;5034072;28;20033;-84
2022/05/19 02:30:27;;;;;;;9.65;5.20;;;19.50;81.60;;;;;;4992160;28;20822;-83
2022/05/19 02:32:54;;;;;;;11.55;5.43;;;19.50;81.70;;;;;;5017656;28;20477;-83
2022/05/19 02:35:20;;;;;;;7.47;4.57;;;19.50;82.40;;;;;;5018025;28;20747;-83
2022/05/19 02:37:46;;;;;;;8.05;4.97;;;19.50;82.60;;;;;;5018036;28;20033;-83
2022/05/19 02:40:15;;;;;;;8.48;5.43;;;19.50;82.90;;;;;;4971388;28;1283038;-82
2022/05/19 02:42:41;;;;;;;8.05;5.07;;;19.40;82.90;;;;;;5021489;28;20041;-83
2022/05/19 02:45:08;;;;;;;8.75;5.00;;;19.30;83.10;;;;;;5027214;28;20038;-83
2022/05/19 02:47:34;;;;;;;9.48;5.10;;;19.40;82.80;;;;;;5022026;28;20431;-82
2022/05/19 02:50:00;;;;;;;7.20;4.32;;;19.40;83.20;;;;;;5009367;28;20042;-82
2022/05/19 02:52:26;;;;;;;7.55;4.45;;;19.30;83.00;;;;;;5016128;28;20060;-83
2022/05/19 02:54:52;;;;;;;9.82;4.60;;;19.40;82.80;;;;;;5014095;28;20095;-83
2022/05/19 02:57:17;;;;;;;8.45;4.68;;;19.30;82.70;;;;;;5004423;28;20037;-84
2022/05/19 02:59:43;;;;;;;7.93;4.45;;;19.30;82.90;;;;;;5007834;28;20488;-83
2022/05/19 03:02:09;;;;;;;8.25;4.63;;;19.20;82.30;;;;;;5011175;28;20115;-82
2022/05/19 03:04:35;;;;;;;8.88;4.45;;;19.10;82.30;;;;;;5013163;28;20117;-82
2022/05/19 03:07:01;;;;;;;8.77;4.70;;;19.20;82.30;;;;;;5012741;28;20041;-82
2022/05/19 03:09:27;;;;;;;9.80;5.85;;;19.10;83.10;;;;;;5019759;28;20065;-82
2022/05/19 03:11:52;;;;;;;8.05;5.18;;;18.90;84.10;;;;;;5015676;28;20148;-81
2022/05/19 03:14:18;;;;;;;10.30;4.80;;;18.90;83.20;;;;;;5014573;28;20042;-83
2022/05/19 03:16:44;;;;;;;9.52;4.40;;;19.00;81.10;;;;;;5024969;28;20041;-82
2022/05/19 03:19:09;;;;;;;8.30;5.40;;;19.10;81.00;;;;;;5019230;28;20045;-82
2022/05/19 03:21:36;;;;;;;8.90;5.10;;;19.10;80.60;;;;;;5011925;28;20128;-82
2022/05/19 03:24:02;;;;;;;9.10;5.57;;;19.10;80.60;;;;;;5015536;28;20536;-83
2022/05/19 03:26:28;;;;;;;8.90;5.22;;;19.20;80.70;;;;;;5021705;28;20044;-82
2022/05/19 03:28:54;;;;;;;7.82;5.30;;;19.30;81.20;;;;;;5015910;28;20038;-82
2022/05/19 03:31:19;;;;;;;10.32;5.32;;;19.30;82.00;;;;;;5017675;28;20041;-84
2022/05/19 03:33:45;;;;;;;9.82;5.65;;;19.30;82.60;;;;;;5017280;28;20038;-83
2022/05/19 03:36:12;;;;;;;9.43;5.75;;;19.40;82.90;;;;;;5009217;28;20041;-82
2022/05/19 03:38:37;;;;;;;9.65;6.00;;;19.30;83.00;;;;;;5006373;28;20040;-82
2022/05/19 03:41:04;;;;;;;9.80;6.90;;;19.30;83.00;;;;;;5022808;28;20102;-82
2022/05/19 03:43:31;;;;;;;10.20;7.45;;;19.20;83.20;;;;;;5018243;28;20104;-83
2022/05/19 03:45:56;;;;;;;9.27;6.78;;;19.10;82.60;;;;;;5016450;28;20049;-84
2022/05/19 03:48:22;;;;;;;12.05;7.03;;;19.10;82.90;;;;;;5022944;28;20474;-84
2022/05/19 03:50:49;;;;;;;10.55;7.38;;;19.00;83.20;;;;;;5030384;28;20045;-84
2022/05/19 03:53:15;;;;;;;11.40;7.20;;;18.90;83.50;;;;;;5024095;28;20041;-84
2022/05/19 03:55:41;;;;;;;11.75;7.20;;;18.90;83.70;;;;;;5015416;28;20134;-85
2022/05/19 03:58:07;;;;;;;11.77;7.03;;;18.90;84.00;;;;;;5012706;28;20068;-84
2022/05/19 04:00:33;;;;;;;8.82;7.03;;;18.90;84.30;;;;;;5011996;28;20064;-84
2022/05/19 04:02:59;;;;;;;11.63;7.75;;;18.90;84.50;;;;;;5021827;28;20169;-84
2022/05/19 04:05:27;;;;;;;10.65;7.47;;;18.90;84.60;;;;;;5005930;28;20034;-84
2022/05/19 04:07:52;;;;;;;12.27;7.38;;;18.80;84.90;;;;;;5009446;28;20044;-84
2022/05/19 04:10:18;;;;;;;11.77;8.30;;;18.80;85.10;;;;;;5016475;28;20483;-83
2022/05/19 04:12:45;;;;;;;12.15;8.88;;;18.80;85.20;;;;;;5036764;28;20044;-84
2022/05/19 04:15:11;;;;;;;12.90;9.02;;;18.80;85.50;;;;;;5017624;28;20088;-84
2022/05/19 04:17:37;;;;;;;14.88;9.18;;;18.90;85.50;;;;;;5019965;28;20120;-85
2022/05/19 04:20:06;;;;;;;11.75;8.88;;;18.90;85.60;;;;;;5027184;28;20095;-85
2022/05/19 04:22:32;;;;;;;12.10;9.15;;;18.90;85.60;;;;;;5025647;28;20041;-84
2022/05/19 04:25:01;;;;;;;12.52;10.48;;;18.90;85.70;;;;;;5027627;28;20063;-84
2022/05/19 04:27:28;;;;;;;11.93;9.43;;;18.90;85.40;;;;;;5024493;28;20065;-84
2022/05/19 04:29:55;;;;;;;13.75;10.70;;;18.90;85.10;;;;;;5040209;28;20037;-84
2022/05/19 04:32:23;;;;;;;11.48;10.00;;;18.90;85.30;;;;;;5027104;28;20105;-83
2022/05/19 04:34:48;;;;;;;14.80;10.98;;;18.90;85.50;;;;;;5024442;28;20052;-84
2022/05/19 04:37:14;;;;;;;13.57;10.25;;;18.90;85.70;;;;;;5005585;28;20034;-84
2022/05/19 04:39:40;;;;;;;12.02;9.93;;;18.90;86.00;;;;;;5013962;28;20095;-84
2022/05/19 04:42:08;;;;;;;14.88;10.50;;;18.90;85.90;;;;;;5012253;28;20048;-83
2022/05/19 04:44:34;;;;;;;13.43;10.40;;;18.90;85.80;;;;;;5013660;28;20037;-85
2022/05/19 04:47:00;;;;;;;13.45;9.48;;;19.00;85.70;;;;;;5021490;28;20041;-83
2022/05/19 04:49:25;;;;;;;12.55;9.48;;;19.00;85.50;;;;;;5016536;28;20265;-82
2022/05/19 04:51:51;;;;;;;13.98;10.25;;;19.00;85.00;;;;;;5014688;28;20030;-83
2022/05/19 04:54:16;;;;;;;14.40;10.82;;;19.00;84.50;;;;;;5005784;28;20034;-82
2022/05/19 04:56:43;;;;;;;14.23;10.27;;;19.10;84.50;;;;;;5020557;28;20503;-83
2022/05/19 04:59:15;;;;;;;14.20;10.85;;;19.10;84.70;;;;;;5011380;28;20462;-83
2022/05/19 05:01:45;;;;;;;12.15;9.70;;;19.20;84.60;;;;;;5009359;28;20049;-84
2022/05/19 05:04:11;;;;;;;14.25;10.20;;;19.30;84.60;;;;;;5009747;28;20486;-83
2022/05/19 05:06:37;;;;;;;14.70;9.65;;;19.50;84.60;;;;;;5016391;28;20585;-84
2022/05/19 05:09:03;;;;;;;12.43;8.77;;;19.50;84.00;;;;;;5009022;28;20037;-82
2022/05/19 05:11:29;;;;;;;11.43;8.30;;;19.60;83.30;;;;;;5024502;28;20030;-84
2022/05/19 05:13:55;;;;;;;10.18;7.97;;;19.70;82.90;;;;;;5021043;28;20079;-84
2022/05/19 05:16:21;;;;;;;10.20;6.93;;;19.80;82.30;;;;;;5009614;28;20034;-82
2022/05/19 05:18:46;;;;;;;12.02;7.13;;;20.10;82.10;;;;;;5014342;28;20040;-82
2022/05/19 05:21:13;;;;;;;10.68;6.25;;;20.40;80.60;;;;;;5021454;28;20057;-83
2022/05/19 05:23:39;;;;;;;8.98;6.55;;;20.80;79.00;;;;;;5005903;28;20030;-83
2022/05/19 05:26:06;;;;;;;12.88;7.00;;;20.90;77.50;;;;;;5009113;28;20057;-84
2022/05/19 05:28:33;;;;;;;11.93;6.65;;;21.30;77.40;;;;;;5015896;28;20099;-84
2022/05/19 05:30:59;;;;;;;13.65;6.40;;;21.70;76.00;;;;;;5031204;28;20041;-83
2022/05/19 05:33:25;;;;;;;10.30;5.70;;;22.30;73.80;;;;;;5025459;28;20038;-82
2022/05/19 05:35:51;;;;;;;13.35;5.32;;;22.60;72.20;;;;;;5041202;28;20092;-82
2022/05/19 05:38:17;;;;;;;10.15;5.45;;;23.00;70.80;;;;;;5025530;28;20121;-84
2022/05/19 05:40:44;;;;;;;12.60;5.68;;;23.20;70.10;;;;;;5016980;28;20050;-83
2022/05/19 05:43:13;;;;;;;9.98;5.47;;;23.20;70.10;;;;;;5019270;28;20061;-83
2022/05/19 05:45:40;;;;;;;8.38;4.88;;;23.20;69.50;;;;;;5031413;28;20080;-83
2022/05/19 05:48:06;;;;;;;10.65;5.65;;;23.30;69.60;;;;;;5019348;28;20065;-84
2022/05/19 05:50:32;;;;;;;8.45;4.93;;;23.40;69.10;;;;;;5024200;28;20038;-85
2022/05/19 05:52:58;;;;;;;8.02;4.60;;;23.10;69.30;;;;;;5015456;28;20040;-84
2022/05/19 05:55:24;;;;;;;8.73;4.82;;;22.70;70.20;;;;;;5016833;28;20042;-85
2022/05/19 05:57:49;;;;;;;8.73;5.03;;;22.50;71.40;;;;;;5027508;28;20057;-85
2022/05/19 06:00:18;;;;;;;14.82;5.70;;;22.20;72.40;;;;;;5014485;28;20054;-85
2022/05/19 06:02:44;;;;;;;8.05;5.15;;;22.20;72.80;;;;;;5017805;28;20034;-83
2022/05/19 06:05:11;;;;;;;8.30;5.35;;;22.20;73.00;;;;;;5025867;28;20052;-84
2022/05/19 06:07:38;;;;;;;8.05;4.82;;;22.10;73.20;;;;;;5021414;28;20049;-83
2022/05/19 06:10:04;;;;;;;8.60;4.88;;;22.20;73.70;;;;;;5023134;28;20572;-83
2022/05/19 06:12:30;;;;;;;9.48;5.57;;;22.20;73.80;;;;;;5019319;28;20046;-83
2022/05/19 06:14:57;;;;;;;8.40;5.43;;;22.20;72.90;;;;;;5017725;28;20376;-84
2022/05/19 06:17:24;;;;;;;8.38;5.10;;;22.10;73.40;;;;;;5018701;28;20034;-84
2022/05/19 06:19:50;;;;;;;9.85;5.50;;;22.10;74.20;;;;;;5024432;28;20211;-82
2022/05/19 06:22:17;;;;;;;8.93;5.25;;;22.10;73.90;;;;;;5014582;28;20102;-82
2022/05/19 06:24:44;;;;;;;9.43;5.65;;;22.10;73.80;;;;;;5017696;28;20037;-82
2022/05/19 06:27:09;;;;;;;9.07;5.13;;;22.00;73.20;;;;;;5011010;28;20148;-83
2022/05/19 06:29:35;;;;;;;7.45;5.03;;;22.00;73.90;;;;;;5009322;28;20042;-82
2022/05/19 06:32:01;;;;;;;8.70;5.68;;;22.00;74.50;;;;;;5007965;28;20038;-82
2022/05/19 06:34:27;;;;;;;10.77;5.90;;;22.00;75.30;;;;;;5014665;28;20373;-81
2022/05/19 06:36:52;;;;;;;9.80;5.43;;;22.00;75.20;;;;;;5019015;28;20029;-80
2022/05/19 06:39:19;;;;;;;9.68;5.47;;;22.00;75.10;;;;;;5019659;28;20037;-82
2022/05/19 06:42:00;;;;;;;8.65;5.32;;;22.00;74.40;;;;;;5019405;28;20048;-81
2022/05/19 06:44:28;;;;;;;9.18;5.35;;;22.10;75.10;;;;;;5009605;28;20034;-82
2022/05/19 06:46:54;;;;;;;10.82;5.47;;;22.10;74.30;;;;;;5011848;28;20116;-82
2022/05/19 06:49:20;;;;;;;11.10;5.30;;;22.00;74.50;;;;;;5016988;28;20117;-82
2022/05/19 06:51:46;;;;;;;8.13;4.82;;;22.10;74.90;;;;;;5016085;28;20073;-82
2022/05/19 06:54:11;;;;;;;9.35;5.45;;;22.20;74.60;;;;;;5009710;28;20056;-82
2022/05/19 06:56:37;;;;;;;10.70;5.65;;;22.40;75.20;;;;;;5015121;28;20446;-82
2022/05/19 06:59:04;;;;;;;8.85;5.32;;;22.60;74.10;;;;;;5009269;28;20438;-83
2022/05/19 07:01:30;;;;;;;11.60;6.13;;;22.90;73.70;;;;;;5014490;28;20046;-84
2022/05/19 07:03:56;;;;;;;7.88;5.30;;;23.10;73.00;;;;;;5012913;28;20527;-84
2022/05/19 07:06:22;;;;;;;8.25;5.22;;;23.30;72.80;;;;;;5017170;28;20045;-83
2022/05/19 07:08:48;;;;;;;10.02;5.57;;;23.30;71.50;;;;;;5009691;28;20625;-83
2022/05/19 07:11:26;;;;;;;9.93;5.32;;;23.50;71.60;;;;;;5013592;28;20030;-84
2022/05/19 07:14:03;;;;;;;8.75;5.53;;;23.50;70.80;;;;;;5010606;28;20401;-83
2022/05/19 07:16:29;;;;;;;8.88;5.50;;;23.50;70.20;;;;;;5016252;28;20030;-83
2022/05/19 07:21:43;;;;;;;9.75;5.72;;;23.50;70.50;;;;;;5014327;28;20672;-84
2022/05/19 07:24:17;;;;;;;8.68;5.72;;;23.60;71.80;;;;;;5012114;28;21313;-83
2022/05/19 07:26:49;;;;;;;9.90;5.82;;;23.60;71.80;;;;;;5007647;28;20109;-86
2022/05/19 07:29:15;;;;;;;12.60;6.65;;;23.60;70.50;;;;;;5012704;28;20034;-83
2022/05/19 07:31:42;;;;;;;9.68;6.30;;;23.60;71.60;;;;;;5025633;28;20212;-83
2022/05/19 07:34:10;;;;;;;10.13;5.97;;;23.60;71.80;;;;;;5019813;28;20478;-82
2022/05/19 07:36:36;;;;;;;9.52;6.25;;;23.70;71.30;;;;;;5034456;28;20550;-82
2022/05/19 07:39:03;;;;;;;10.77;6.40;;;23.80;70.60;;;;;;5028425;28;20025;-82
2022/05/19 07:41:30;;;;;;;15.23;6.97;;;24.10;69.70;;;;;;5030230;28;20053;-84
2022/05/19 07:43:57;;;;;;;13.07;6.55;;;24.10;68.70;;;;;;5006667;28;20439;-83
2022/05/19 07:46:27;;;;;;;10.63;6.00;;;24.30;69.70;;;;;;5002206;28;20461;-83
2022/05/19 07:48:54;;;;;;;10.95;6.40;;;24.50;68.40;;;;;;5003115;28;20072;-83
2022/05/19 07:51:28;;;;;;;8.93;5.40;;;24.50;68.20;;;;;;5005832;28;20040;-83
2022/05/19 07:53:55;;;;;;;13.52;7.03;;;24.70;68.60;;;;;;5017619;28;20587;-82
2022/05/19 07:56:21;;;;;;;11.60;6.45;;;24.90;69.20;;;;;;5003664;28;20117;-82
2022/05/19 07:58:47;;;;;;;11.25;6.40;;;25.00;67.90;;;;;;5010819;28;20076;-82
2022/05/19 08:01:15;;;;;;;9.80;6.22;;;25.30;67.20;;;;;;5001703;28;20061;-81
2022/05/19 08:03:41;;;;;;;12.13;6.22;;;25.60;65.10;;;;;;5003228;28;20041;-82
2022/05/19 08:06:10;;;;;;;9.43;5.97;;;25.80;63.40;;;;;;5004957;28;20297;-82
2022/05/19 08:08:36;;;;;;;12.27;6.10;;;26.00;63.40;;;;;;5004731;28;20034;-81
2022/05/19 08:11:02;;;;;;;9.80;5.47;;;26.30;63.20;;;;;;5012038;28;20045;-82
2022/05/19 08:16:12;;;;;;;13.70;5.05;;;26.60;61.40;;;;;;5005103;28;21149;-82
2022/05/19 08:18:38;;;;;;;10.23;5.53;;;26.50;60.60;;;;;;5009821;28;20038;-83
2022/05/19 08:21:07;;;;;;;11.20;5.47;;;26.40;61.50;;;;;;5003916;28;20045;-84
2022/05/19 08:23:35;;;;;;;7.20;4.80;;;26.10;60.40;;;;;;5016030;28;20052;-82
2022/05/19 08:26:02;;;;;;;9.13;5.55;;;26.00;63.80;;;;;;5009911;28;20133;-82
2022/05/19 08:28:31;;;;;;;9.20;6.15;;;25.80;61.40;;;;;;5006340;28;20044;-82
2022/05/19 08:31:05;;;;;;;10.50;5.68;;;25.50;62.00;;;;;;5001980;28;20049;-85
2022/05/19 08:33:33;;;;;;;13.13;5.72;;;25.40;63.50;;;;;;5004967;28;20061;-84
2022/05/19 08:35:59;;;;;;;10.50;6.13;;;25.60;62.80;;;;;;5006676;28;20056;-84
2022/05/19 08:38:24;;;;;;;9.55;5.93;;;25.60;62.60;;;;;;5001433;28;20117;-82
2022/05/19 08:41:00;;;;;;;9.05;6.28;;;25.60;63.50;;;;;;5009196;28;20042;-84
2022/05/19 08:43:33;;;;;;;12.13;6.32;;;25.70;65.00;;;;;;5004023;28;20041;-83
2022/05/19 08:46:02;;;;;;;11.75;6.43;;;25.70;64.40;;;;;;5000232;28;20034;-83
2022/05/19 08:48:29;;;;;;;11.15;6.63;;;26.00;62.30;;;;;;5004456;28;20333;-82
2022/05/19 08:51:04;;;;;;;12.15;6.95;;;26.20;61.20;;;;;;5005643;28;20107;-83
2022/05/19 08:53:41;;;;;;;9.93;6.35;;;26.20;61.70;;;;;;5002005;28;20053;-83
2022/05/19 08:56:19;;;;;;;10.85;6.10;;;26.10;62.60;;;;;;5018607;28;20042;-83
2022/05/19 08:59:27;;;;;;;10.82;7.50;;;26.00;64.60;;;;;;5008902;28;20033;-83
2022/05/19 09:02:04;;;;;;;10.88;7.47;;;25.70;65.70;;;;;;4969931;28;20307;-84
2022/05/19 09:04:32;;;;;;;12.35;7.85;;;25.60;66.80;;;;;;5022424;28;20034;-84
2022/05/19 09:10:11;;;;;;;16.27;7.72;;;25.70;67.00;;;;;;5005403;28;20084;-82
2022/05/19 09:12:39;;;;;;;11.48;7.28;;;25.60;67.20;;;;;;5012355;28;20405;-84
2022/05/19 09:15:09;;;;;;;12.50;8.90;;;25.40;67.30;;;;;;5009901;28;20538;-84
2022/05/19 09:17:38;;;;;;;12.30;8.10;;;25.10;67.60;;;;;;5006926;28;20046;-85
2022/05/19 09:20:11;;;;;;;13.25;9.55;;;24.60;68.80;;;;;;5009161;28;20030;-84
2022/05/19 09:22:38;;;;;;;13.93;10.38;;;24.40;70.40;;;;;;5010604;28;20318;-85
2022/05/19 09:25:08;;;;;;;14.85;10.48;;;24.00;71.90;;;;;;5011766;28;20041;-85
2022/05/19 09:27:40;;;;;;;15.35;10.85;;;23.50;72.80;;;;;;5008815;28;20042;-85
2022/05/19 09:30:29;;;;;;;17.13;11.30;;;23.00;74.20;;;;;;5005540;28;20073;-84
2022/05/19 09:32:57;;;;;;;14.98;11.55;;;22.80;76.00;;;;;;5012010;28;20472;-85
2022/05/19 09:35:34;;;;;;;16.17;11.50;;;22.60;77.40;;;;;;5007498;28;20099;-85
2022/05/19 09:38:12;;;;;;;17.27;12.80;;;22.50;77.60;;;;;;5005213;28;20038;-81
2022/05/19 09:40:40;;;;;;;15.95;11.00;;;22.20;78.70;;;;;;5018341;28;20049;-81
2022/05/19 09:43:10;;;;;;;18.05;13.05;;;22.00;78.00;;;;;;5008894;28;20041;-84
2022/05/19 09:45:48;;;;;;;15.80;10.35;;;21.70;79.40;;;;;;5009730;28;20053;-82
2022/05/19 09:48:14;;;;;;;14.68;9.05;;;21.00;80.70;;;;;;5006400;28;20065;-79
2022/05/19 09:50:46;;;;;;;15.70;10.43;;;20.40;81.60;;;;;;5006110;28;20501;-80
2022/05/19 09:53:25;;;;;;;13.15;10.30;;;20.30;82.80;;;;;;5016722;28;20025;-80
2022/05/19 09:56:00;;;;;;;14.30;11.60;;;20.10;82.70;;;;;;5017448;28;20876;-81
2022/05/19 09:58:31;;;;;;;16.25;12.90;;;20.00;83.30;;;;;;5007234;28;20152;-82
2022/05/19 10:01:05;;;;;;;19.17;15.63;;;19.80;84.30;;;;;;5002306;28;20053;-82
2022/05/19 10:03:40;;;;;;;21.98;19.10;;;19.80;85.10;;;;;;5011237;28;20337;-83
2022/05/19 10:06:33;;;;;;;28.10;25.25;;;19.70;85.70;;;;;;5003435;28;20529;-81
2022/05/19 10:09:05;;;;;;;35.60;31.80;;;19.50;85.40;;;;;;5006328;28;20064;-83
2022/05/19 10:11:31;;;;;;;38.40;34.45;;;19.30;85.90;;;;;;5004009;28;20123;-82
2022/05/19 10:14:03;;;;;;;39.60;35.70;;;19.20;86.20;;;;;;5009652;28;20038;-81
2022/05/19 10:16:50;;;;;;;42.35;37.85;;;19.10;86.80;;;;;;5003771;28;20069;-82
2022/05/19 10:19:37;;;;;;;55.40;49.70;;;19.10;86.50;;;;;;5003288;28;20133;-82
2022/05/19 10:22:17;;;;;;;47.20;42.30;;;18.90;86.40;;;;;;5006487;28;20084;-81
2022/05/19 10:25:11;;;;;;;53.22;46.63;;;18.80;86.80;;;;;;5009279;28;20077;-82
2022/05/19 10:31:18;;;;;;;40.53;36.13;;;18.60;86.90;;;;;;5007752;28;20111;-84
2022/05/19 10:33:52;;;;;;;30.27;27.17;;;18.60;87.20;;;;;;5009577;28;20382;-83
2022/05/19 10:36:45;;;;;;;31.38;27.40;;;18.40;86.70;;;;;;5008819;28;20052;-82
2022/05/19 10:39:24;;;;;;;28.40;25.23;;;18.40;87.10;;;;;;5004946;28;20037;-80
2022/05/19 10:42:05;;;;;;;26.98;24.15;;;18.40;87.40;;;;;;5008179;28;20088;-80
2022/05/19 10:45:07;;;;;;;24.38;21.00;;;18.40;87.60;;;;;;5002931;28;20038;-80
2022/05/19 10:47:54;;;;;;;21.58;18.95;;;18.40;87.50;;;;;;4998915;28;20041;-82
2022/05/19 10:50:38;;;;;;;21.33;18.02;;;18.50;87.40;;;;;;5011598;28;20042;-83
2022/05/19 10:53:22;;;;;;;18.17;16.00;;;18.50;87.10;;;;;;5010270;28;20029;-81
2022/05/19 10:56:03;;;;;;;;;;;18.50;86.70;;;;;;5012922;28;20096;-82
2022/05/19 10:58:40;;;;;;;18.40;15.18;;;18.60;87.40;;;;;;5006882;28;19917;-81
2022/05/19 11:01:50;;;;;;;19.30;17.17;;;18.50;87.10;;;;;;5008249;28;20041;-82
2022/05/19 11:04:38;;;;;;;17.60;14.25;;;18.60;87.30;;;;;;4946626;28;20134;-83
2022/05/19 11:07:29;;;;;;;17.67;15.52;;;18.70;86.70;;;;;;5006647;28;20036;-82
2022/05/19 11:10:24;;;;;;;19.75;15.43;;;19.10;86.90;;;;;;5007374;28;20494;-82
2022/05/19 11:12:56;;;;;;;16.35;13.45;;;19.80;86.70;;;;;;5011329;28;20084;-84
2022/05/19 11:15:30;;;;;;;14.65;11.75;;;20.40;84.80;;;;;;5022644;28;20057;-83
2022/05/19 11:18:05;;;;;;;12.90;10.18;;;20.70;82.60;;;;;;5002553;28;20033;-82
2022/05/19 11:20:39;;;;;;;12.02;10.27;;;20.80;82.20;;;;;;5007275;28;20081;-82
2022/05/19 11:23:15;;;;;;;10.73;9.25;;;20.90;80.80;;;;;;5007040;28;20026;-83
2022/05/19 11:28:58;;;;;;;13.00;9.77;;;20.90;80.60;;;;;;5010233;28;20744;-82
2022/05/19 11:31:54;;;;;;;15.40;12.40;;;21.10;80.90;;;;;;5002859;28;20445;-84
2022/05/19 11:34:50;;;;;;;15.35;12.43;;;21.30;80.40;;;;;;5010240;28;20405;-82
2022/05/19 11:37:31;;;;;;;12.85;10.95;;;21.40;80.20;;;;;;5012982;28;20139;-82
2022/05/19 11:40:20;;;;;;;13.35;11.40;;;21.40;79.70;;;;;;5012961;28;20120;-83
2022/05/19 11:43:27;;;;;;;13.77;11.45;;;21.50;79.20;;;;;;5004873;28;20037;-82
2022/05/19 11:45:59;;;;;;;12.90;11.27;;;21.50;77.90;;;;;;5002145;28;20045;-82
2022/05/19 11:57:23;;;;;;;13.93;11.52;;;21.50;79.70;;;;;;5013978;28;20068;-82
2022/05/19 11:59:55;;;;;;;12.38;10.90;;;21.70;78.60;;;;;;5016682;28;20045;-81
2022/05/19 12:02:50;;;;;;;15.02;12.55;;;22.00;78.90;;;;;;5018785;28;20124;-84
2022/05/19 12:05:29;;;;;;;15.52;13.25;;;22.30;78.30;;;;;;5009687;28;20033;-82
2022/05/19 12:08:09;;;;;;;14.10;12.60;;;22.30;78.10;;;;;;5018623;28;20039;-84
2022/05/19 12:10:39;;;;;;;15.68;13.73;;;22.60;77.50;;;;;;5008102;28;20046;-82
2022/05/19 12:13:06;;;;;;;15.93;14.18;;;22.80;76.90;;;;;;5008132;28;20036;-85
2022/05/19 12:15:36;;;;;;;20.38;18.38;;;22.90;76.50;;;;;;5017753;28;20048;-86
2022/05/19 12:18:24;;;;;;;15.57;14.07;;;23.10;75.90;;;;;;5009979;28;20087;-82
2022/05/19 12:21:02;;;;;;;14.45;12.25;;;23.60;76.00;;;;;;5024423;28;20068;-83
2022/05/19 12:23:39;;;;;;;14.70;11.52;;;23.80;74.60;;;;;;5014851;28;20045;-82
2022/05/19 12:26:19;;;;;;;14.43;11.02;;;23.70;73.80;;;;;;5013599;28;20057;-83
2022/05/19 12:28:49;;;;;;;12.77;9.90;;;23.50;73.80;;;;;;5016308;28;20532;-83
2022/05/19 12:34:07;;;;;;;12.25;8.40;;;23.50;74.20;;;;;;5021515;28;20056;-86
2022/05/19 12:37:06;;;;;;;10.63;7.72;;;23.50;75.10;;;;;;5016909;28;20089;-82
2022/05/19 12:39:46;;;;;;;10.77;7.35;;;23.80;73.50;;;;;;5015719;28;20508;-85
2022/05/19 12:42:40;;;;;;;10.48;6.78;;;24.30;72.60;;;;;;5010387;28;20058;-85
2022/05/19 12:45:19;;;;;;;9.48;6.43;;;23.90;70.10;;;;;;5026602;28;20041;-84
2022/05/19 12:48:25;;;;;;;9.13;6.65;;;23.80;69.60;;;;;;5032837;28;20278;-83
2022/05/19 12:51:12;;;;;;;12.25;6.63;;;23.50;70.60;;;;;;5016729;28;20200;-86
2022/05/19 12:53:49;;;;;;;10.45;6.57;;;23.40;71.40;;;;;;5015162;28;20045;-84
2022/05/19 12:56:46;;;;;;;10.75;6.22;;;23.50;71.10;;;;;;5016274;28;20042;-84
2022/05/19 12:59:50;;;;;;;10.05;5.68;;;23.50;71.10;;;;;;5017503;28;20448;-85
2022/05/19 13:02:25;;;;;;;6.95;3.95;;;23.50;71.00;;;;;;5021262;28;20044;-85
2022/05/19 13:04:57;;;;;;;5.75;3.60;;;23.10;67.90;;;;;;5020954;28;20242;-84
2022/05/19 13:07:40;;;;;;;7.40;3.50;;;22.70;69.30;;;;;;5029393;28;20033;-83
2022/05/19 13:10:34;;;;;;;8.18;3.85;;;22.50;70.50;;;;;;5026475;28;20040;-86
2022/05/19 13:13:26;;;;;;;7.50;3.83;;;22.20;71.00;;;;;;5015332;28;20128;-85
2022/05/19 13:15:56;;;;;;;7.50;4.05;;;22.10;71.60;;;;;;5024073;28;20387;-84
2022/05/19 13:18:32;;;;;;;6.40;3.80;;;22.00;70.80;;;;;;5029486;28;20481;-86
2022/05/19 13:21:20;;;;;;;7.70;4.10;;;22.10;71.30;;;;;;5027964;28;20131;-87
2022/05/19 13:23:46;;;;;;;6.93;3.65;;;22.40;69.40;;;;;;5024758;28;20060;-86
2022/05/19 13:26:30;;;;;;;7.13;4.07;;;22.60;69.60;;;;;;5019790;28;20438;-85
2022/05/19 13:32:01;;;;;;;5.65;3.55;;;22.90;68.40;;;;;;5021030;28;20712;-84